Time;durP1;ratioP1;P1;durP2;ratioP2;P2;SDS_P1;SDS_P2;PMS_P1;PMS_P2;Temp;Humidity;BMP_temperature;BMP_pressure;BME280_temperature;BME280_humidity;BME280_pressure;Samples;Min_cycle;Max_cycle;Signal;HPM_P1;HPM_P2
2021/04/21 00:02:25;;;;;;;8.20;7.40;;;9.80;99.90;;;;;;5031260;28;20282;-33
2021/04/21 00:04:54;;;;;;;8.40;7.55;;;9.60;99.90;;;;;;5031429;28;20249;-32
2021/04/21 00:07:24;;;;;;;10.60;7.80;;;9.60;99.90;;;;;;5031172;28;20200;-32
2021/04/21 00:09:53;;;;;;;16.83;8.18;;;9.40;99.90;;;;;;5031518;28;20695;-32
2021/04/21 00:12:22;;;;;;;7.72;6.97;;;9.10;99.90;;;;;;5030992;28;20220;-32
2021/04/21 00:14:52;;;;;;;9.00;6.95;;;9.10;99.90;;;;;;5031834;28;20203;-31
2021/04/21 00:17:20;;;;;;;10.05;7.43;;;9.30;99.90;;;;;;5031481;28;20284;-31
2021/04/21 00:19:47;;;;;;;9.02;7.93;;;9.20;99.90;;;;;;5031292;28;20192;-32
2021/04/21 00:22:18;;;;;;;8.63;7.78;;;8.90;99.90;;;;;;5039159;22;20235;-34
2021/04/21 00:24:47;;;;;;;7.72;7.03;;;9.00;99.90;;;;;;5020547;28;20584;-35
2021/04/21 00:27:15;;;;;;;8.77;7.90;;;9.00;99.90;;;;;;5013117;28;20699;-35
2021/04/21 00:29:46;;;;;;;11.02;7.13;;;9.30;99.90;;;;;;5011881;28;20241;-35
2021/04/21 00:32:15;;;;;;;11.73;8.80;;;9.40;99.90;;;;;;5025278;28;20633;-36
2021/04/21 00:34:43;;;;;;;12.63;9.02;;;9.60;99.90;;;;;;5015680;28;20283;-35
2021/04/21 00:37:11;;;;;;;11.82;8.90;;;9.60;99.90;;;;;;5023703;28;20228;-35
2021/04/21 00:39:41;;;;;;;11.20;8.68;;;9.60;99.90;;;;;;5012173;28;20259;-35
2021/04/21 00:42:21;;;;;;;11.98;8.63;;;9.60;99.90;;;;;;5024799;28;20223;-35
2021/04/21 00:44:58;;;;;;;9.38;8.38;;;9.50;99.90;;;;;;5021286;28;20204;-35
2021/04/21 00:47:34;;;;;;;9.05;6.43;;;9.40;99.90;;;;;;5019473;28;20227;-35
2021/04/21 00:50:04;;;;;;;8.52;7.50;;;9.50;99.90;;;;;;5011644;28;20707;-35
2021/04/21 00:52:40;;;;;;;9.05;7.90;;;9.50;99.90;;;;;;5009830;28;20239;-36
2021/04/21 00:55:14;;;;;;;13.43;7.28;;;9.60;99.90;;;;;;5026906;28;20193;-34
2021/04/21 00:57:51;;;;;;;12.00;7.85;;;9.60;99.90;;;;;;5020175;28;20251;-35
2021/04/21 01:00:22;;;;;;;7.65;6.72;;;9.50;99.90;;;;;;4995276;28;20564;-35
2021/04/21 01:03:02;;;;;;;8.88;7.95;;;9.30;99.90;;;;;;5026005;28;20235;-35
2021/04/21 01:05:34;;;;;;;10.50;7.15;;;9.40;99.90;;;;;;5010880;28;20196;-34
2021/04/21 01:08:07;;;;;;;8.02;6.20;;;9.20;99.90;;;;;;5007103;28;20610;-35
2021/04/21 01:10:41;;;;;;;8.30;7.20;;;9.20;99.90;;;;;;5028995;28;20216;-35
2021/04/21 01:13:10;;;;;;;7.70;7.03;;;9.20;99.90;;;;;;4997779;28;20236;-35
2021/04/21 01:15:41;;;;;;;9.10;7.47;;;9.30;99.90;;;;;;5011465;28;20726;-35
2021/04/21 01:18:10;;;;;;;9.77;6.75;;;9.30;99.90;;;;;;5012447;28;20236;-36
2021/04/21 01:20:44;;;;;;;8.32;7.07;;;9.40;99.90;;;;;;5026588;28;20184;-35
2021/04/21 01:24:02;;;;;;;9.88;7.75;;;9.20;99.90;;;;;;5024205;28;20733;-34
2021/04/21 01:26:51;;;;;;;8.38;7.45;;;8.60;99.90;;;;;;5004998;28;20621;-35
2021/04/21 01:29:25;;;;;;;15.18;8.10;;;8.50;99.90;;;;;;5026131;28;20203;-35
2021/04/21 01:31:55;;;;;;;9.25;7.65;;;8.60;99.90;;;;;;5012137;28;20232;-35
2021/04/21 01:34:23;;;;;;;7.95;7.15;;;8.70;99.90;;;;;;5012427;28;20683;-34
2021/04/21 01:36:52;;;;;;;12.63;7.95;;;8.60;99.90;;;;;;4997853;28;20196;-35
2021/04/21 01:39:20;;;;;;;9.13;8.23;;;8.40;99.90;;;;;;5027071;28;20192;-34
2021/04/21 01:41:52;;;;;;;10.13;7.93;;;8.40;99.90;;;;;;5011019;28;20299;-35
2021/04/21 01:44:22;;;;;;;14.55;8.25;;;8.30;99.90;;;;;;5023117;28;20192;-36
2021/04/21 01:46:56;;;;;;;8.25;7.38;;;8.20;99.90;;;;;;5029214;28;20200;-41
2021/04/21 01:49:49;;;;;;;9.63;7.88;;;8.30;99.90;;;;;;5028762;28;20187;-36
2021/04/21 01:52:26;;;;;;;9.23;7.85;;;8.30;99.90;;;;;;5012384;28;20227;-36
2021/04/21 01:54:58;;;;;;;11.65;7.55;;;8.30;99.90;;;;;;5019371;28;20428;-34
2021/04/21 01:57:34;;;;;;;6.88;5.88;;;8.40;99.90;;;;;;5024437;28;20196;-35
2021/04/21 02:00:12;;;;;;;8.32;6.40;;;8.50;99.90;;;;;;5010914;28;20196;-36
2021/04/21 02:02:46;;;;;;;11.70;8.35;;;8.50;99.90;;;;;;5017689;28;20261;-35
2021/04/21 02:05:21;;;;;;;13.48;8.00;;;8.40;99.90;;;;;;5030655;28;20196;-36
2021/04/21 02:08:03;;;;;;;10.55;8.00;;;8.30;99.90;;;;;;5027697;28;20206;-35
2021/04/21 02:10:40;;;;;;;11.90;8.05;;;8.40;99.90;;;;;;5025449;28;20223;-36
2021/04/21 02:13:28;;;;;;;9.88;7.30;;;8.20;99.90;;;;;;5011058;28;20228;-35
2021/04/21 02:16:22;;;;;;;12.25;6.88;;;8.00;99.90;;;;;;5026265;28;20203;-36
2021/04/21 02:19:09;;;;;;;9.93;6.88;;;7.90;99.90;;;;;;5009273;28;20200;-35
2021/04/21 02:21:47;;;;;;;8.55;6.05;;;7.70;99.90;;;;;;5010041;28;20263;-35
2021/04/21 02:24:26;;;;;;;9.00;7.57;;;7.40;99.90;;;;;;5011560;28;20203;-36
2021/04/21 02:27:00;;;;;;;9.88;6.63;;;7.00;99.90;;;;;;5017043;28;20293;-36
2021/04/21 02:29:34;;;;;;;10.65;6.57;;;7.10;99.90;;;;;;5029751;28;20294;-38
2021/04/21 02:32:11;;;;;;;8.30;7.05;;;7.00;99.90;;;;;;5018528;28;20219;-35
2021/04/21 02:34:47;;;;;;;8.65;6.50;;;7.20;99.90;;;;;;5014639;28;20250;-36
2021/04/21 02:37:24;;;;;;;12.63;7.30;;;7.50;99.90;;;;;;5015608;28;20204;-35
2021/04/21 02:40:01;;;;;;;9.88;6.80;;;7.50;99.90;;;;;;4997734;28;20224;-37
2021/04/21 02:42:39;;;;;;;9.35;7.03;;;7.30;99.90;;;;;;5014692;28;20251;-35
2021/04/21 02:45:15;;;;;;;7.78;5.75;;;7.10;99.90;;;;;;5033774;28;20213;-35
2021/04/21 02:47:48;;;;;;;7.50;6.65;;;6.80;99.90;;;;;;5019257;28;20189;-36
2021/04/21 02:50:21;;;;;;;8.95;7.22;;;6.50;99.90;;;;;;5014217;28;20231;-37
2021/04/21 02:53:01;;;;;;;9.02;7.00;;;6.50;99.90;;;;;;5015405;28;20217;-37
2021/04/21 02:55:38;;;;;;;11.32;6.40;;;6.60;99.90;;;;;;5027129;28;20697;-36
2021/04/21 02:58:11;;;;;;;6.13;5.43;;;6.80;99.90;;;;;;5026114;28;20296;-36
2021/04/21 03:00:44;;;;;;;7.20;6.50;;;6.80;99.90;;;;;;5014531;28;20209;-36
2021/04/21 03:03:19;;;;;;;10.52;7.18;;;7.00;99.90;;;;;;5001870;28;20628;-36
2021/04/21 03:05:50;;;;;;;7.03;6.32;;;6.80;99.90;;;;;;5018641;28;20664;-36
2021/04/21 03:08:50;;;;;;;6.82;5.85;;;6.90;99.90;;;;;;5014795;28;20490;-36
2021/04/21 03:11:20;;;;;;;7.72;5.93;;;7.20;99.90;;;;;;5020498;28;20220;-36
2021/04/21 03:13:52;;;;;;;12.57;6.13;;;7.00;99.90;;;;;;5031781;28;20217;-35
2021/04/21 03:16:21;;;;;;;8.20;5.50;;;7.10;99.90;;;;;;5033204;28;20517;-34
2021/04/21 03:18:51;;;;;;;5.47;4.57;;;6.90;99.90;;;;;;5020660;28;20193;-34
2021/04/21 03:21:21;;;;;;;6.43;5.43;;;6.70;99.90;;;;;;5022342;28;20250;-34
2021/04/21 03:23:54;;;;;;;9.30;5.40;;;6.60;99.90;;;;;;5016877;28;20306;-35
2021/04/21 03:26:22;;;;;;;5.78;5.10;;;6.60;99.90;;;;;;5033546;28;20203;-35
2021/04/21 03:28:54;;;;;;;9.45;5.85;;;6.50;99.90;;;;;;5021178;28;20649;-34
2021/04/21 03:31:23;;;;;;;7.00;5.70;;;6.60;99.90;;;;;;5021477;28;20219;-36
2021/04/21 03:33:54;;;;;;;10.00;5.90;;;6.60;99.90;;;;;;5030301;28;20264;-36
2021/04/21 03:36:21;;;;;;;7.57;6.32;;;6.60;99.90;;;;;;5013386;28;20200;-36
2021/04/21 03:38:48;;;;;;;9.55;4.93;;;6.70;99.90;;;;;;5023234;28;20258;-36
2021/04/21 03:41:16;;;;;;;6.63;5.55;;;6.70;99.90;;;;;;5022910;28;20193;-36
2021/04/21 03:43:44;;;;;;;12.27;6.05;;;6.80;99.90;;;;;;5030523;28;20327;-36
2021/04/21 03:46:12;;;;;;;5.85;5.00;;;6.80;99.90;;;;;;5013382;28;20749;-35
2021/04/21 03:48:39;;;;;;;8.00;5.00;;;6.80;99.90;;;;;;5013892;28;20184;-35
2021/04/21 03:51:07;;;;;;;7.35;6.03;;;6.90;99.90;;;;;;5023651;28;20216;-35
2021/04/21 03:53:36;;;;;;;9.18;5.90;;;7.00;99.90;;;;;;5031949;28;20306;-36
2021/04/21 03:56:06;;;;;;;7.53;4.70;;;7.10;99.90;;;;;;5008218;28;20216;-35
2021/04/21 03:58:34;;;;;;;7.43;5.20;;;7.20;99.90;;;;;;5002888;28;20199;-37
2021/04/21 04:01:18;;;;;;;8.43;5.03;;;7.30;99.90;;;;;;5056599;22;20203;-79
2021/04/21 04:03:51;;;;;;;9.40;5.32;;;7.30;99.90;;;;;;5005668;28;20351;-80
2021/04/21 04:06:23;;;;;;;8.93;5.88;;;7.30;99.90;;;;;;4996209;28;20194;-80
2021/04/21 04:08:51;;;;;;;10.93;7.20;;;7.20;99.90;;;;;;4959872;28;20190;-80
2021/04/21 04:11:25;;;;;;;8.02;6.97;;;7.00;99.90;;;;;;4961164;28;20577;-80
2021/04/21 04:13:59;;;;;;;9.90;7.07;;;7.10;99.90;;;;;;4996442;28;20704;-80
2021/04/21 04:16:27;;;;;;;7.72;6.38;;;7.20;99.90;;;;;;5030885;22;20311;-34
2021/04/21 04:18:56;;;;;;;8.45;6.60;;;7.10;99.90;;;;;;5011396;28;20189;-34
2021/04/21 04:21:31;;;;;;;9.43;6.82;;;7.10;99.90;;;;;;5011258;28;20192;-34
2021/04/21 04:23:59;;;;;;;8.40;7.43;;;7.30;99.90;;;;;;5011137;28;20222;-34
2021/04/21 04:26:27;;;;;;;10.20;7.45;;;7.30;99.90;;;;;;5011169;28;20197;-35
2021/04/21 04:28:55;;;;;;;13.02;10.60;;;7.40;99.90;;;;;;5011297;28;20205;-34
2021/04/21 04:31:22;;;;;;;11.00;9.90;;;7.60;99.90;;;;;;5010633;28;20205;-34
2021/04/21 04:33:50;;;;;;;7.28;6.68;;;7.60;99.90;;;;;;5011304;28;20287;-33
2021/04/21 04:36:18;;;;;;;10.18;6.72;;;7.00;99.90;;;;;;5011102;28;20200;-35
2021/04/21 04:38:46;;;;;;;8.18;7.32;;;6.70;99.90;;;;;;4991577;28;20224;-34
2021/04/21 04:41:13;;;;;;;11.48;7.47;;;7.00;99.90;;;;;;5007394;28;20207;-35
2021/04/21 04:43:43;;;;;;;7.47;6.72;;;7.20;99.90;;;;;;4993993;28;20209;-33
2021/04/21 04:46:14;;;;;;;7.50;6.13;;;7.20;99.90;;;;;;5006555;28;20220;-34
2021/04/21 04:48:48;;;;;;;9.35;7.72;;;7.20;99.90;;;;;;5011162;28;20267;-35
2021/04/21 04:51:18;;;;;;;15.45;9.90;;;7.30;99.90;;;;;;5010473;28;20228;-34
2021/04/21 04:53:46;;;;;;;8.13;6.88;;;7.30;99.90;;;;;;5009182;28;20617;-33
2021/04/21 04:56:14;;;;;;;6.97;6.25;;;7.30;99.90;;;;;;5011168;28;20231;-34
2021/04/21 04:58:45;;;;;;;6.55;5.53;;;7.40;99.90;;;;;;5010792;28;20587;-34
2021/04/21 05:01:12;;;;;;;10.50;7.10;;;7.30;99.90;;;;;;5010311;28;20216;-36
2021/04/21 05:03:50;;;;;;;13.27;6.75;;;7.30;99.90;;;;;;5010025;28;20730;-35
2021/04/21 05:06:24;;;;;;;6.90;5.47;;;7.40;99.90;;;;;;4991337;28;20211;-34
2021/04/21 05:08:53;;;;;;;21.67;16.88;;;7.20;99.90;;;;;;5005787;28;20196;-35
2021/04/21 05:11:23;;;;;;;15.48;8.02;;;7.00;99.90;;;;;;5010868;28;20240;-35
2021/04/21 05:13:51;;;;;;;12.40;7.07;;;7.00;99.90;;;;;;5010268;28;20209;-34
2021/04/21 05:16:51;;;;;;;7.72;6.22;;;6.90;99.90;;;;;;5010440;28;20618;-33
2021/04/21 05:20:05;;;;;;;7.32;6.45;;;6.80;99.90;;;;;;5009609;28;20224;-33
2021/04/21 05:23:10;;;;;;;10.32;8.48;;;6.90;99.90;;;;;;4989481;28;20326;-34
2021/04/21 05:26:13;;;;;;;11.68;7.85;;;7.00;99.90;;;;;;5003578;28;20576;-35
2021/04/21 05:29:21;;;;;;;7.70;6.60;;;7.40;99.90;;;;;;5010055;28;20201;-34
2021/04/21 05:32:35;;;;;;;10.55;7.78;;;7.60;99.90;;;;;;4976862;28;20295;-35
2021/04/21 05:35:41;;;;;;;8.45;6.30;;;7.90;99.90;;;;;;5009835;28;20200;-35
2021/04/21 05:38:44;;;;;;;8.48;6.07;;;8.10;99.90;;;;;;5009870;28;20192;-34
2021/04/21 05:42:09;;;;;;;11.02;6.35;;;7.90;99.90;;;;;;5006739;28;20188;-38
2021/04/21 05:45:33;;;;;;;5.38;4.88;;;7.90;99.90;;;;;;5009753;28;20663;-37
2021/04/21 05:48:36;;;;;;;6.25;5.55;;;8.00;99.90;;;;;;5009502;28;20197;-35
2021/04/21 05:51:41;;;;;;;6.32;5.75;;;8.10;99.90;;;;;;5008420;28;20719;-37
2021/04/21 05:54:41;;;;;;;10.27;5.82;;;8.30;99.90;;;;;;5005835;28;20220;-36
2021/04/21 05:57:44;;;;;;;8.93;6.53;;;8.30;99.90;;;;;;4986975;28;20200;-38
2021/04/21 06:00:47;;;;;;;12.10;6.63;;;8.30;99.90;;;;;;5009161;28;20279;-38
2021/04/21 06:03:16;;;;;;;7.40;5.70;;;8.50;99.90;;;;;;5008580;28;20247;-39
2021/04/21 06:05:43;;;;;;;9.85;7.40;;;8.60;99.90;;;;;;5009760;28;20577;-38
2021/04/21 06:08:11;;;;;;;7.18;6.38;;;8.60;99.90;;;;;;5010242;28;20200;-41
2021/04/21 06:10:39;;;;;;;7.20;5.70;;;8.60;99.90;;;;;;5009478;28;20421;-37
2021/04/21 06:13:28;;;;;;;8.35;6.05;;;8.60;99.90;;;;;;5010108;28;20252;-39
2021/04/21 06:15:55;;;;;;;8.88;6.07;;;8.90;99.90;;;;;;5010030;28;20291;-39
2021/04/21 06:18:23;;;;;;;7.97;5.57;;;8.90;99.90;;;;;;5009860;28;20323;-39
2021/04/21 06:20:51;;;;;;;8.25;5.93;;;8.90;99.90;;;;;;5009824;28;20188;-38
2021/04/21 06:23:19;;;;;;;6.40;5.70;;;8.80;99.90;;;;;;5009483;28;20221;-39
2021/04/21 06:25:47;;;;;;;8.65;6.60;;;8.90;99.90;;;;;;5009432;28;20189;-37
2021/04/21 06:28:17;;;;;;;8.43;7.00;;;9.10;99.90;;;;;;5008718;28;20200;-37
2021/04/21 06:30:46;;;;;;;8.43;6.20;;;9.30;99.90;;;;;;4992181;28;20220;-37
2021/04/21 06:33:13;;;;;;;7.65;6.63;;;9.60;99.90;;;;;;5003627;28;20491;-36
2021/04/21 06:35:42;;;;;;;8.40;6.60;;;9.70;99.90;;;;;;4997456;28;20242;-36
2021/04/21 06:38:10;;;;;;;9.05;6.75;;;10.00;99.90;;;;;;4998896;28;20212;-38
2021/04/21 06:41:00;;;;;;;10.20;6.78;;;10.00;99.90;;;;;;5006539;28;20200;-39
2021/04/21 06:43:29;;;;;;;8.82;6.65;;;10.10;99.90;;;;;;5002363;28;20303;-37
2021/04/21 06:45:56;;;;;;;10.82;7.85;;;10.30;99.90;;;;;;5009984;28;20197;-37
2021/04/21 06:48:28;;;;;;;12.55;8.23;;;10.20;99.90;;;;;;4995517;28;20220;-39
2021/04/21 06:51:06;;;;;;;9.52;8.13;;;10.30;99.90;;;;;;5006617;28;20254;-40
2021/04/21 06:53:33;;;;;;;8.00;6.53;;;10.30;99.90;;;;;;4998080;28;20307;-39
2021/04/21 06:56:00;;;;;;;10.65;7.47;;;10.40;99.90;;;;;;5002961;28;20209;-36
2021/04/21 06:58:29;;;;;;;11.32;7.80;;;10.60;99.90;;;;;;4998898;28;20864;-36
2021/04/21 07:00:56;;;;;;;9.63;6.97;;;10.70;99.90;;;;;;5005451;28;20291;-36
2021/04/21 07:03:23;;;;;;;7.20;6.50;;;10.80;99.90;;;;;;4998807;28;20929;-35
2021/04/21 07:05:50;;;;;;;11.55;7.30;;;10.90;99.90;;;;;;4999674;28;20208;-39
2021/04/21 07:08:19;;;;;;;9.23;7.07;;;11.20;99.90;;;;;;5004559;28;20675;-35
2021/04/21 07:10:48;;;;;;;15.35;7.47;;;11.40;99.90;;;;;;5006338;28;20208;-37
2021/04/21 07:13:20;;;;;;;11.90;7.82;;;11.50;99.90;;;;;;5002032;28;20772;-37
2021/04/21 07:15:49;;;;;;;12.30;7.70;;;11.80;99.90;;;;;;5002823;28;20209;-39
2021/04/21 07:18:18;;;;;;;7.78;6.75;;;12.00;99.90;;;;;;5002900;28;20259;-37
2021/04/21 07:20:46;;;;;;;11.30;8.55;;;12.00;99.90;;;;;;4998537;28;20205;-39
2021/04/21 07:23:13;;;;;;;11.77;9.35;;;12.00;99.90;;;;;;5009175;28;20302;-38
2021/04/21 07:25:46;;;;;;;10.80;8.23;;;12.10;99.90;;;;;;4999178;28;20201;-38
2021/04/21 07:28:15;;;;;;;13.18;7.85;;;12.40;99.90;;;;;;5005950;28;20289;-39
2021/04/21 07:30:42;;;;;;;12.77;8.48;;;12.50;99.90;;;;;;5002251;28;20220;-37
2021/04/21 07:33:09;;;;;;;11.73;8.77;;;12.60;99.90;;;;;;5002005;28;20225;-37
2021/04/21 07:35:37;;;;;;;14.15;9.73;;;12.40;99.90;;;;;;5001786;28;20193;-39
2021/04/21 07:38:16;;;;;;;13.82;8.77;;;12.40;99.90;;;;;;5002724;28;20206;-37
2021/04/21 07:40:50;;;;;;;10.77;8.93;;;12.60;99.90;;;;;;5002649;28;20274;-38
2021/04/21 07:43:19;;;;;;;12.00;8.75;;;13.00;99.90;;;;;;5001320;28;20236;-38
2021/04/21 07:45:54;;;;;;;10.40;8.57;;;13.10;99.90;;;;;;5003300;28;20271;-37
2021/04/21 07:48:42;;;;;;;11.57;7.68;;;13.00;99.90;;;;;;5001444;28;20192;-38
2021/04/21 07:51:43;;;;;;;10.38;8.00;;;13.10;99.90;;;;;;5002696;28;20223;-37
2021/04/21 07:54:26;;;;;;;15.00;9.10;;;13.40;99.90;;;;;;4999122;28;20684;-37
2021/04/21 07:56:57;;;;;;;10.45;9.27;;;13.50;99.90;;;;;;5001067;28;20263;-35
2021/04/21 07:59:26;;;;;;;12.20;8.15;;;13.60;99.90;;;;;;4999968;28;20595;-37
2021/04/21 08:01:54;;;;;;;12.50;8.45;;;13.80;99.90;;;;;;4998313;28;20247;-36
2021/04/21 08:04:26;;;;;;;10.35;8.02;;;14.20;99.90;;;;;;5002688;28;20193;-34
2021/04/21 08:06:55;;;;;;;10.90;8.50;;;14.20;99.90;;;;;;5002789;28;20467;-37
2021/04/21 08:09:22;;;;;;;9.68;7.93;;;14.30;99.90;;;;;;5002323;28;20200;-38
2021/04/21 08:12:12;;;;;;;11.18;7.70;;;14.30;99.90;;;;;;4995774;28;20598;-37
2021/04/21 08:14:44;;;;;;;12.05;9.18;;;14.50;99.90;;;;;;4999318;28;20212;-36
2021/04/21 08:17:12;;;;;;;23.98;17.92;;;14.40;99.90;;;;;;5003003;28;20224;-37
2021/04/21 08:19:41;;;;;;;14.20;8.20;;;14.40;99.90;;;;;;5003753;28;20197;-37
2021/04/21 08:22:09;;;;;;;10.77;7.60;;;14.60;99.90;;;;;;4996159;28;20248;-36
2021/04/21 08:24:44;;;;;;;11.35;7.80;;;14.60;99.90;;;;;;5008490;28;20217;-37
2021/04/21 08:27:15;;;;;;;9.27;7.88;;;14.70;99.90;;;;;;4999997;28;20206;-36
2021/04/21 08:29:43;;;;;;;10.90;8.25;;;14.80;99.90;;;;;;4998882;28;20639;-37
2021/04/21 08:32:10;;;;;;;7.72;6.72;;;14.90;99.90;;;;;;5006996;28;20642;-37
2021/04/21 08:34:37;;;;;;;6.60;4.68;;;15.00;99.90;;;;;;4994724;28;20196;-38
2021/04/21 08:37:05;;;;;;;6.65;6.05;;;15.10;99.90;;;;;;5004344;28;20685;-36
2021/04/21 08:39:32;;;;;;;7.85;6.30;;;15.30;99.90;;;;;;4998711;28;20197;-36
2021/04/21 08:42:00;;;;;;;9.07;6.90;;;15.30;99.90;;;;;;5002112;28;20197;-35
2021/04/21 08:44:32;;;;;;;8.77;6.43;;;15.60;99.90;;;;;;5000233;28;20203;-36
2021/04/21 08:47:00;;;;;;;7.40;5.82;;;15.60;99.90;;;;;;4999493;28;20193;-35
2021/04/21 08:49:30;;;;;;;12.27;6.00;;;15.70;99.90;;;;;;5001209;28;20259;-35
2021/04/21 08:51:59;;;;;;;9.80;6.00;;;15.80;99.90;;;;;;5005116;28;20666;-36
2021/04/21 08:54:28;;;;;;;7.13;5.43;;;15.70;99.90;;;;;;5006325;28;20247;-36
2021/04/21 08:56:57;;;;;;;7.45;6.20;;;15.70;99.90;;;;;;5011472;28;20322;-38
2021/04/21 08:59:24;;;;;;;8.35;4.75;;;15.80;99.90;;;;;;5010884;28;20204;-37
2021/04/21 09:01:52;;;;;;;6.32;4.97;;;15.80;99.90;;;;;;5010945;28;20204;-37
2021/04/21 09:04:19;;;;;;;6.32;5.25;;;16.00;99.90;;;;;;5010960;28;20204;-37
2021/04/21 09:06:46;;;;;;;7.38;5.72;;;16.00;99.90;;;;;;5011226;28;20254;-37
2021/04/21 09:09:15;;;;;;;5.55;4.78;;;15.80;99.90;;;;;;5010757;28;20208;-38
2021/04/21 09:11:42;;;;;;;6.25;5.05;;;16.10;99.90;;;;;;5010648;28;20917;-37
2021/04/21 09:14:08;;;;;;;7.82;4.55;;;16.10;99.90;;;;;;5010787;28;20219;-36
2021/04/21 09:16:35;;;;;;;10.20;4.70;;;16.40;99.90;;;;;;5010553;28;20211;-37
2021/04/21 09:19:13;;;;;;;6.32;3.67;;;16.60;99.90;;;;;;5010259;28;20209;-36
2021/04/21 09:21:40;;;;;;;15.27;12.95;;;16.50;99.90;;;;;;5009644;28;20272;-37
2021/04/21 09:24:28;;;;;;;16.20;14.57;;;16.60;99.90;;;;;;5008532;28;20448;-35
2021/04/21 09:26:54;;;;;;;5.70;4.88;;;16.80;99.90;;;;;;5009168;28;20211;-34
2021/04/21 09:29:25;;;;;;;6.03;4.57;;;16.80;99.90;;;;;;5007804;28;20200;-37
2021/04/21 09:32:05;;;;;;;4.18;3.78;;;16.90;99.90;;;;;;4998585;28;20217;-36
2021/04/21 09:34:33;;;;;;;7.28;4.15;;;17.00;99.90;;;;;;5010232;28;20212;-37
2021/04/21 09:36:59;;;;;;;10.15;5.03;;;17.10;99.90;;;;;;5009169;28;20204;-37
2021/04/21 09:39:26;;;;;;;4.90;4.10;;;17.10;99.90;;;;;;5009558;28;20562;-35
2021/04/21 09:42:00;;;;;;;4.72;4.30;;;17.00;99.90;;;;;;5008728;28;20573;-36
2021/04/21 09:44:28;;;;;;;7.07;4.63;;;17.00;99.90;;;;;;5010340;28;20192;-35
2021/04/21 09:46:56;;;;;;;11.40;5.40;;;17.00;99.90;;;;;;5010264;28;20196;-35
2021/04/21 09:49:35;;;;;;;4.78;3.90;;;17.10;99.90;;;;;;4992747;28;20200;-37
2021/04/21 09:52:23;;;;;;;4.90;3.92;;;17.10;99.90;;;;;;4998598;28;20232;-35
2021/04/21 09:55:15;;;;;;;7.82;3.45;;;17.10;99.90;;;;;;4980537;28;20622;-35
2021/04/21 09:57:46;;;;;;;6.55;3.67;;;17.10;99.90;;;;;;5008271;28;20292;-37
2021/04/21 10:00:20;;;;;;;4.18;3.45;;;17.10;99.90;;;;;;5009759;28;20276;-36
2021/04/21 10:02:46;;;;;;;3.92;3.38;;;17.40;99.90;;;;;;5009433;28;20225;-38
2021/04/21 10:05:29;;;;;;;6.53;3.70;;;17.40;99.90;;;;;;5009904;28;20200;-37
2021/04/21 10:08:14;;;;;;;7.43;3.50;;;17.40;99.90;;;;;;5009314;28;20251;-36
2021/04/21 10:10:42;;;;;;;4.47;3.67;;;17.40;99.90;;;;;;5009128;28;20239;-34
2021/04/21 10:13:14;;;;;;;5.20;3.78;;;17.40;99.90;;;;;;5010293;28;20236;-36
2021/04/21 10:15:41;;;;;;;7.35;4.18;;;17.20;99.90;;;;;;4997653;28;20209;-36
2021/04/21 10:18:09;;;;;;;7.72;5.03;;;17.40;99.90;;;;;;5006725;28;20278;-35
2021/04/21 10:20:36;;;;;;;5.10;4.20;;;17.80;99.90;;;;;;5009246;28;20686;-34
2021/04/21 10:23:05;;;;;;;7.63;4.78;;;17.60;99.90;;;;;;5009438;28;20228;-35
2021/04/21 10:25:32;;;;;;;6.53;4.03;;;17.80;99.90;;;;;;5008056;28;20193;-34
2021/04/21 10:27:59;;;;;;;5.60;4.60;;;17.70;99.90;;;;;;5023192;22;20235;-35
2021/04/21 10:30:26;;;;;;;9.18;5.18;;;17.60;99.90;;;;;;5008689;28;20204;-33
2021/04/21 10:32:53;;;;;;;5.00;4.50;;;17.70;99.90;;;;;;5005922;28;20212;-35
2021/04/21 10:35:21;;;;;;;6.10;4.43;;;17.70;99.90;;;;;;5007300;28;20199;-34
2021/04/21 10:37:49;;;;;;;7.95;4.45;;;17.30;99.90;;;;;;5008769;28;20789;-34
2021/04/21 10:40:27;;;;;;;10.05;4.00;;;17.20;99.90;;;;;;5007819;28;20253;-33
2021/04/21 10:42:58;;;;;;;6.93;4.35;;;17.00;99.90;;;;;;5004663;28;20685;-34
2021/04/21 10:45:28;;;;;;;4.82;4.40;;;17.20;99.90;;;;;;5009528;28;20193;-34
2021/04/21 10:47:56;;;;;;;8.57;5.03;;;17.60;99.90;;;;;;5009506;28;20220;-34
2021/04/21 10:50:35;;;;;;;13.77;5.28;;;18.10;99.90;;;;;;4995360;28;20204;-35
2021/04/21 10:53:04;;;;;;;7.15;4.40;;;18.10;99.90;;;;;;5001497;28;20231;-34
2021/04/21 10:55:34;;;;;;;7.80;5.03;;;18.00;99.90;;;;;;5011204;28;20243;-33
2021/04/21 10:58:03;;;;;;;13.18;4.97;;;18.00;99.90;;;;;;5012015;28;20730;-34
2021/04/21 11:00:32;;;;;;;7.65;4.68;;;17.90;99.90;;;;;;5011307;28;20263;-35
2021/04/21 11:03:01;;;;;;;10.65;4.78;;;17.70;99.90;;;;;;5013260;28;20687;-33
2021/04/21 11:05:40;;;;;;;6.50;4.55;;;17.70;99.90;;;;;;5013210;28;20208;-33
2021/04/21 11:08:10;;;;;;;4.95;3.83;;;18.00;99.90;;;;;;5012553;28;20224;-34
2021/04/21 11:10:46;;;;;;;4.97;3.97;;;18.00;99.90;;;;;;5013202;28;20208;-33
2021/04/21 11:13:15;;;;;;;5.15;4.57;;;18.00;99.90;;;;;;5013284;28;20687;-34
2021/04/21 11:15:44;;;;;;;5.07;4.47;;;17.80;99.90;;;;;;5012388;28;20217;-34
2021/04/21 11:18:35;;;;;;;5.32;4.50;;;18.00;99.90;;;;;;5006853;28;20270;-33
2021/04/21 11:21:05;;;;;;;6.70;4.68;;;18.00;99.90;;;;;;5009418;28;20280;-33
2021/04/21 11:23:57;;;;;;;6.13;4.20;;;17.80;99.90;;;;;;5010158;28;20634;-33
2021/04/21 11:26:36;;;;;;;5.00;4.50;;;17.70;99.90;;;;;;5005591;28;20231;-34
2021/04/21 11:29:05;;;;;;;8.25;4.30;;;17.90;99.90;;;;;;4993874;28;20255;-34
2021/04/21 11:32:09;;;;;;;5.70;4.35;;;17.80;99.90;;;;;;5012231;28;20209;-34
2021/04/21 11:34:38;;;;;;;8.48;5.53;;;18.00;99.90;;;;;;4999299;28;20200;-32
2021/04/21 11:37:07;;;;;;;7.22;5.72;;;18.20;99.90;;;;;;5007202;28;20682;-34
2021/04/21 11:40:07;;;;;;;7.65;5.10;;;18.50;99.90;;;;;;5011172;28;20222;-32
2021/04/21 11:42:36;;;;;;;5.68;4.75;;;18.70;99.90;;;;;;5003624;28;20185;-33
2021/04/21 11:45:17;;;;;;;7.88;6.07;;;19.00;99.90;;;;;;5013093;28;20192;-35
2021/04/21 11:47:45;;;;;;;8.23;5.95;;;19.10;99.90;;;;;;5010909;28;20237;-33
2021/04/21 11:50:21;;;;;;;9.25;5.43;;;19.30;99.90;;;;;;5012438;28;20271;-33
2021/04/21 11:53:02;;;;;;;8.07;5.47;;;18.90;99.90;;;;;;5011790;28;20723;-34
2021/04/21 11:55:38;;;;;;;8.88;5.60;;;18.90;99.90;;;;;;5009169;28;20287;-33
2021/04/21 11:58:09;;;;;;;7.80;5.97;;;19.10;99.90;;;;;;5011723;28;20240;-33
2021/04/21 12:00:38;;;;;;;5.65;4.88;;;19.40;99.90;;;;;;5012559;28;20208;-34
2021/04/21 12:03:14;;;;;;;9.60;5.13;;;19.50;99.90;;;;;;5011428;28;20192;-32
2021/04/21 12:05:42;;;;;;;8.30;5.55;;;19.50;99.90;;;;;;5010599;28;20279;-33
2021/04/21 12:08:10;;;;;;;12.20;5.60;;;19.20;99.90;;;;;;5016134;28;20236;-33
2021/04/21 12:10:44;;;;;;;12.57;5.07;;;19.20;99.60;;;;;;5009781;28;20203;-33
2021/04/21 12:13:33;;;;;;;4.50;4.07;;;18.90;99.30;;;;;;5011671;28;20196;-35
2021/04/21 12:16:09;;;;;;;7.60;4.20;;;19.40;99.30;;;;;;5009059;28;20204;-33
2021/04/21 12:18:41;;;;;;;13.90;5.50;;;19.60;99.10;;;;;;5009135;28;20207;-35
2021/04/21 12:21:28;;;;;;;5.85;4.55;;;19.60;98.90;;;;;;5011023;28;20647;-35
2021/04/21 12:23:57;;;;;;;5.00;4.40;;;19.60;98.40;;;;;;5012595;28;20209;-34
2021/04/21 12:26:28;;;;;;;5.05;4.07;;;19.80;98.40;;;;;;5012090;28;20208;-34
2021/04/21 12:28:57;;;;;;;6.07;4.10;;;20.10;97.80;;;;;;5011322;28;20220;-35
2021/04/21 12:31:25;;;;;;;4.90;3.88;;;20.60;98.10;;;;;;5011469;28;20217;-35
2021/04/21 12:33:54;;;;;;;5.97;4.10;;;20.60;97.60;;;;;;5011764;28;20284;-34
2021/04/21 12:36:24;;;;;;;5.63;3.92;;;21.00;97.90;;;;;;5011580;28;20193;-33
2021/04/21 12:39:01;;;;;;;9.40;5.28;;;20.60;97.70;;;;;;5006596;28;20225;-33
2021/04/21 12:41:29;;;;;;;5.18;4.65;;;20.60;97.60;;;;;;5012748;28;20200;-33
2021/04/21 12:43:55;;;;;;;8.30;4.65;;;19.90;97.30;;;;;;5012552;28;20196;-32
2021/04/21 12:46:23;;;;;;;7.93;5.07;;;19.80;97.70;;;;;;5011255;28;20201;-32
2021/04/21 12:48:52;;;;;;;8.57;6.15;;;19.90;97.90;;;;;;5010963;28;20247;-32
2021/04/21 12:51:23;;;;;;;7.88;5.38;;;19.80;98.50;;;;;;5011044;28;20645;-33
2021/04/21 12:53:51;;;;;;;5.82;5.32;;;19.80;98.40;;;;;;5011536;28;20204;-33
2021/04/21 12:56:18;;;;;;;6.53;5.43;;;20.20;98.10;;;;;;5011196;28;20196;-32
2021/04/21 12:58:47;;;;;;;8.70;6.03;;;20.40;98.30;;;;;;5013622;28;20262;-35
2021/04/21 13:01:17;;;;;;;5.72;5.25;;;19.80;98.70;;;;;;5010933;28;20188;-34
2021/04/21 13:04:01;;;;;;;7.95;5.22;;;19.50;98.00;;;;;;5010433;28;20227;-34
2021/04/21 13:06:40;;;;;;;6.60;5.95;;;18.90;98.30;;;;;;4996424;28;20197;-34
2021/04/21 13:09:10;;;;;;;8.05;5.82;;;19.10;99.10;;;;;;5010841;28;20244;-34
2021/04/21 13:11:38;;;;;;;6.93;5.88;;;19.70;99.00;;;;;;5010735;28;20231;-34
2021/04/21 13:14:07;;;;;;;8.40;6.47;;;19.80;99.70;;;;;;5010178;28;20638;-36
2021/04/21 13:16:37;;;;;;;9.68;7.22;;;20.00;99.90;;;;;;5014189;28;20200;-34
2021/04/21 13:19:25;;;;;;;8.95;7.07;;;20.20;99.90;;;;;;5021337;28;20223;-33
2021/04/21 13:22:07;;;;;;;11.48;8.48;;;19.70;99.50;;;;;;5010444;28;20185;-33
2021/04/21 13:24:39;;;;;;;8.52;7.22;;;19.90;99.90;;;;;;4992418;28;20570;-33